sensor_id;sensor_type;location;lat;lon;timestamp;pressure;altitude;pressure_sealevel;temperature;humidity
11038;BME280;5572;49.540;11.932;2023-05-23T00:00:35;95741.53;;;13.77;100.00
11038;BME280;5572;49.540;11.932;2023-05-23T00:03:02;95735.19;;;13.65;100.00
11038;BME280;5572;49.540;11.932;2023-05-23T00:05:29;95740.44;;;13.70;100.00
11038;BME280;5572;49.540;11.932;2023-05-23T00:07:55;95735.41;;;13.60;100.00
11038;BME280;5572;49.540;11.932;2023-05-23T00:10:22;95736.53;;;13.59;100.00
11038;BME280;5572;49.540;11.932;2023-05-23T00:12:48;95716.88;;;13.62;100.00
11038;BME280;5572;49.540;11.932;2023-05-23T00:15:16;95718.22;;;13.96;100.00
11038;BME280;5572;49.540;11.932;2023-05-23T00:17:42;95725.16;;;13.85;100.00
11038;BME280;5572;49.540;11.932;2023-05-23T00:20:10;95729.72;;;13.93;100.00
11038;BME280;5572;49.540;11.932;2023-05-23T00:22:37;95737.41;;;13.71;100.00
11038;BME280;5572;49.540;11.932;2023-05-23T00:25:07;95729.91;;;13.68;100.00
11038;BME280;5572;49.540;11.932;2023-05-23T00:27:34;95744.31;;;13.60;100.00
11038;BME280;5572;49.540;11.932;2023-05-23T00:30:00;95759.97;;;13.34;100.00
11038;BME280;5572;49.540;11.932;2023-05-23T00:32:28;95763.91;;;13.45;100.00
11038;BME280;5572;49.540;11.932;2023-05-23T00:34:54;95757.44;;;13.58;100.00
11038;BME280;5572;49.540;11.932;2023-05-23T00:37:21;95769.34;;;13.45;100.00
11038;BME280;5572;49.540;11.932;2023-05-23T00:39:48;95771.94;;;13.71;100.00
11038;BME280;5572;49.540;11.932;2023-05-23T00:42:14;95777.59;;;13.86;100.00
11038;BME280;5572;49.540;11.932;2023-05-23T00:44:41;95783.41;;;13.76;100.00
11038;BME280;5572;49.540;11.932;2023-05-23T00:47:07;95779.69;;;13.80;100.00
11038;BME280;5572;49.540;11.932;2023-05-23T00:49:36;95775.91;;;13.73;100.00
11038;BME280;5572;49.540;11.932;2023-05-23T00:52:03;95759.78;;;13.97;100.00
11038;BME280;5572;49.540;11.932;2023-05-23T00:54:30;95772.97;;;13.78;100.00
11038;BME280;5572;49.540;11.932;2023-05-23T00:56:58;95789.88;;;13.55;100.00
11038;BME280;5572;49.540;11.932;2023-05-23T00:59:25;95783.94;;;13.61;100.00
11038;BME280;5572;49.540;11.932;2023-05-23T01:01:53;95787.78;;;13.60;100.00
11038;BME280;5572;49.540;11.932;2023-05-23T01:04:21;95778.16;;;13.63;100.00
11038;BME280;5572;49.540;11.932;2023-05-23T01:06:53;95780.72;;;13.68;100.00
11038;BME280;5572;49.540;11.932;2023-05-23T01:09:20;95818.69;;;13.39;100.00
11038;BME280;5572;49.540;11.932;2023-05-23T01:11:54;95816.97;;;13.34;100.00
11038;BME280;5572;49.540;11.932;2023-05-23T01:14:31;95816.09;;;13.51;100.00
11038;BME280;5572;49.540;11.932;2023-05-23T01:17:02;95818.47;;;13.52;100.00
11038;BME280;5572;49.540;11.932;2023-05-23T01:19:55;95814.06;;;13.76;100.00
11038;BME280;5572;49.540;11.932;2023-05-23T01:22:35;95827.53;;;13.27;100.00
11038;BME280;5572;49.540;11.932;2023-05-23T01:25:10;95819.69;;;13.26;100.00
11038;BME280;5572;49.540;11.932;2023-05-23T01:27:52;95826.03;;;13.38;100.00
11038;BME280;5572;49.540;11.932;2023-05-23T01:30:19;95801.22;;;13.57;100.00
11038;BME280;5572;49.540;11.932;2023-05-23T01:32:47;95801.81;;;13.62;100.00
11038;BME280;5572;49.540;11.932;2023-05-23T01:35:17;95800.13;;;13.78;100.00
11038;BME280;5572;49.540;11.932;2023-05-23T01:37:47;95791.78;;;13.91;100.00
11038;BME280;5572;49.540;11.932;2023-05-23T01:40:14;95800.47;;;13.48;100.00
11038;BME280;5572;49.540;11.932;2023-05-23T01:42:40;95799.44;;;13.61;100.00
11038;BME280;5572;49.540;11.932;2023-05-23T01:45:09;95811.06;;;13.32;100.00
11038;BME280;5572;49.540;11.932;2023-05-23T01:47:37;95801.94;;;13.37;100.00
11038;BME280;5572;49.540;11.932;2023-05-23T01:50:06;95812.66;;;13.25;100.00
11038;BME280;5572;49.540;11.932;2023-05-23T01:52:34;95824.53;;;13.12;100.00
11038;BME280;5572;49.540;11.932;2023-05-23T01:55:02;95824.97;;;13.22;100.00
11038;BME280;5572;49.540;11.932;2023-05-23T01:57:34;95820.72;;;13.04;100.00
11038;BME280;5572;49.540;11.932;2023-05-23T02:00:01;95823.56;;;13.08;100.00
11038;BME280;5572;49.540;11.932;2023-05-23T02:02:31;95832.50;;;13.08;100.00
11038;BME280;5572;49.540;11.932;2023-05-23T02:04:58;95819.88;;;13.12;100.00
11038;BME280;5572;49.540;11.932;2023-05-23T02:07:25;95822.44;;;13.09;100.00
11038;BME280;5572;49.540;11.932;2023-05-23T02:09:51;95829.97;;;13.03;100.00
11038;BME280;5572;49.540;11.932;2023-05-23T02:12:18;95817.44;;;13.28;100.00
11038;BME280;5572;49.540;11.932;2023-05-23T02:14:44;95823.66;;;13.37;100.00
11038;BME280;5572;49.540;11.932;2023-05-23T02:17:11;95817.03;;;13.55;100.00
11038;BME280;5572;49.540;11.932;2023-05-23T02:19:40;95838.97;;;13.41;100.00
11038;BME280;5572;49.540;11.932;2023-05-23T02:22:07;95839.81;;;13.25;100.00
11038;BME280;5572;49.540;11.932;2023-05-23T02:24:34;95825.41;;;13.33;100.00
11038;BME280;5572;49.540;11.932;2023-05-23T02:27:00;95830.66;;;13.46;100.00
11038;BME280;5572;49.540;11.932;2023-05-23T02:29:27;95833.31;;;13.55;100.00
11038;BME280;5572;49.540;11.932;2023-05-23T02:31:53;95836.38;;;13.53;100.00
11038;BME280;5572;49.540;11.932;2023-05-23T02:34:20;95836.22;;;13.50;100.00
11038;BME280;5572;49.540;11.932;2023-05-23T02:36:48;95827.63;;;13.39;100.00
11038;BME280;5572;49.540;11.932;2023-05-23T02:39:15;95814.00;;;13.56;100.00
11038;BME280;5572;49.540;11.932;2023-05-23T02:41:42;95841.25;;;13.14;100.00
11038;BME280;5572;49.540;11.932;2023-05-23T02:44:09;95844.44;;;13.24;100.00
11038;BME280;5572;49.540;11.932;2023-05-23T02:46:35;95843.81;;;13.10;100.00
11038;BME280;5572;49.540;11.932;2023-05-23T02:49:01;95841.59;;;13.12;100.00
11038;BME280;5572;49.540;11.932;2023-05-23T02:51:28;95844.66;;;13.02;100.00
11038;BME280;5572;49.540;11.932;2023-05-23T02:53:57;95846.25;;;13.03;100.00
11038;BME280;5572;49.540;11.932;2023-05-23T02:56:24;95848.63;;;13.13;100.00
11038;BME280;5572;49.540;11.932;2023-05-23T02:58:51;95830.25;;;13.19;100.00
11038;BME280;5572;49.540;11.932;2023-05-23T03:01:18;95834.56;;;13.20;100.00
11038;BME280;5572;49.540;11.932;2023-05-23T03:03:44;95848.63;;;12.88;100.00
11038;BME280;5572;49.540;11.932;2023-05-23T03:06:11;95840.34;;;13.01;100.00
11038;BME280;5572;49.540;11.932;2023-05-23T03:08:38;95819.47;;;13.39;100.00
11038;BME280;5572;49.540;11.932;2023-05-23T03:11:06;95813.31;;;13.68;100.00
11038;BME280;5572;49.540;11.932;2023-05-23T03:13:33;95810.22;;;13.77;100.00
11038;BME280;5572;49.540;11.932;2023-05-23T03:15:59;95823.13;;;13.52;100.00
11038;BME280;5572;49.540;11.932;2023-05-23T03:18:26;95819.53;;;13.31;100.00
11038;BME280;5572;49.540;11.932;2023-05-23T03:23:20;95813.19;;;13.56;100.00
11038;BME280;5572;49.540;11.932;2023-05-23T03:25:46;95820.75;;;13.79;100.00
11038;BME280;5572;49.540;11.932;2023-05-23T03:28:14;95828.38;;;13.57;100.00
11038;BME280;5572;49.540;11.932;2023-05-23T03:30:40;95820.59;;;13.47;100.00
11038;BME280;5572;49.540;11.932;2023-05-23T03:33:07;95822.78;;;13.53;100.00
11038;BME280;5572;49.540;11.932;2023-05-23T03:35:34;95821.53;;;13.51;100.00
11038;BME280;5572;49.540;11.932;2023-05-23T03:38:00;95830.94;;;13.53;100.00
11038;BME280;5572;49.540;11.932;2023-05-23T03:40:27;95840.63;;;13.63;100.00
11038;BME280;5572;49.540;11.932;2023-05-23T03:43:04;95853.75;;;13.61;100.00
11038;BME280;5572;49.540;11.932;2023-05-23T03:45:32;95840.47;;;13.68;100.00
11038;BME280;5572;49.540;11.932;2023-05-23T03:47:59;95838.84;;;13.75;100.00
11038;BME280;5572;49.540;11.932;2023-05-23T03:50:26;95839.97;;;14.11;100.00
11038;BME280;5572;49.540;11.932;2023-05-23T03:52:53;95843.31;;;14.08;100.00
11038;BME280;5572;49.540;11.932;2023-05-23T03:55:20;95837.91;;;14.29;100.00
11038;BME280;5572;49.540;11.932;2023-05-23T03:57:48;95828.34;;;14.52;100.00
11038;BME280;5572;49.540;11.932;2023-05-23T04:00:15;95833.59;;;14.57;100.00
11038;BME280;5572;49.540;11.932;2023-05-23T04:02:44;95825.66;;;14.84;100.00
11038;BME280;5572;49.540;11.932;2023-05-23T04:05:11;95828.97;;;14.89;100.00
11038;BME280;5572;49.540;11.932;2023-05-23T04:07:38;95822.34;;;14.99;100.00
11038;BME280;5572;49.540;11.932;2023-05-23T04:10:07;95818.22;;;14.93;100.00
11038;BME280;5572;49.540;11.932;2023-05-23T04:12:33;95825.25;;;14.94;100.00
11038;BME280;5572;49.540;11.932;2023-05-23T04:15:00;95825.94;;;14.91;100.00
11038;BME280;5572;49.540;11.932;2023-05-23T04:17:26;95824.72;;;15.00;100.00
11038;BME280;5572;49.540;11.932;2023-05-23T04:19:56;95825.81;;;15.20;100.00
11038;BME280;5572;49.540;11.932;2023-05-23T04:22:22;95821.44;;;15.27;100.00
11038;BME280;5572;49.540;11.932;2023-05-23T04:24:49;95818.41;;;15.41;100.00
11038;BME280;5572;49.540;11.932;2023-05-23T04:27:15;95804.94;;;15.80;100.00
11038;BME280;5572;49.540;11.932;2023-05-23T04:29:42;95801.09;;;15.93;100.00
11038;BME280;5572;49.540;11.932;2023-05-23T04:32:11;95791.31;;;16.04;100.00
11038;BME280;5572;49.540;11.932;2023-05-23T04:34:38;95782.66;;;16.26;100.00
11038;BME280;5572;49.540;11.932;2023-05-23T04:37:07;95782.16;;;16.47;100.00
11038;BME280;5572;49.540;11.932;2023-05-23T04:39:34;95784.34;;;16.42;100.00
11038;BME280;5572;49.540;11.932;2023-05-23T04:42:01;95784.16;;;16.74;100.00
11038;BME280;5572;49.540;11.932;2023-05-23T04:44:27;95772.97;;;17.34;100.00
11038;BME280;5572;49.540;11.932;2023-05-23T04:46:54;95786.19;;;17.32;100.00
11038;BME280;5572;49.540;11.932;2023-05-23T04:49:21;95785.81;;;17.33;100.00
11038;BME280;5572;49.540;11.932;2023-05-23T04:51:48;95761.00;;;17.69;100.00
11038;BME280;5572;49.540;11.932;2023-05-23T04:54:16;95744.19;;;18.70;100.00
11038;BME280;5572;49.540;11.932;2023-05-23T04:56:43;95729.56;;;18.82;100.00
11038;BME280;5572;49.540;11.932;2023-05-23T04:59:10;95707.78;;;18.32;100.00
11038;BME280;5572;49.540;11.932;2023-05-23T05:01:37;95699.75;;;18.39;100.00
11038;BME280;5572;49.540;11.932;2023-05-23T05:04:04;95670.59;;;18.46;100.00
11038;BME280;5572;49.540;11.932;2023-05-23T05:06:31;95693.53;;;18.80;100.00
11038;BME280;5572;49.540;11.932;2023-05-23T05:08:58;95724.81;;;18.79;100.00
11038;BME280;5572;49.540;11.932;2023-05-23T05:11:26;95732.53;;;18.73;100.00
11038;BME280;5572;49.540;11.932;2023-05-23T05:13:52;95758.19;;;19.03;100.00
11038;BME280;5572;49.540;11.932;2023-05-23T05:16:19;95756.00;;;18.93;100.00
11038;BME280;5572;49.540;11.932;2023-05-23T05:18:46;95774.25;;;19.04;100.00
11038;BME280;5572;49.540;11.932;2023-05-23T05:21:12;95781.06;;;18.57;100.00
11038;BME280;5572;49.540;11.932;2023-05-23T05:23:47;95776.84;;;18.60;100.00
11038;BME280;5572;49.540;11.932;2023-05-23T05:26:14;95771.19;;;18.72;100.00
11038;BME280;5572;49.540;11.932;2023-05-23T05:28:42;95768.63;;;18.60;100.00
11038;BME280;5572;49.540;11.932;2023-05-23T05:31:09;95784.75;;;18.84;100.00
11038;BME280;5572;49.540;11.932;2023-05-23T05:33:39;95787.25;;;18.05;100.00
11038;BME280;5572;49.540;11.932;2023-05-23T05:36:06;95773.91;;;19.25;100.00
11038;BME280;5572;49.540;11.932;2023-05-23T05:38:32;95820.00;;;18.66;100.00
11038;BME280;5572;49.540;11.932;2023-05-23T05:40:59;95828.91;;;19.16;100.00
11038;BME280;5572;49.540;11.932;2023-05-23T05:43:25;95854.38;;;18.83;100.00
11038;BME280;5572;49.540;11.932;2023-05-23T05:45:58;95876.47;;;20.51;100.00
11038;BME280;5572;49.540;11.932;2023-05-23T05:48:24;95920.00;;;20.97;100.00
11038;BME280;5572;49.540;11.932;2023-05-23T05:50:53;95968.25;;;20.05;100.00
11038;BME280;5572;49.540;11.932;2023-05-23T05:53:19;95961.97;;;20.94;100.00
11038;BME280;5572;49.540;11.932;2023-05-23T05:55:46;96002.47;;;21.78;100.00
11038;BME280;5572;49.540;11.932;2023-05-23T05:58:14;96016.47;;;21.41;100.00
11038;BME280;5572;49.540;11.932;2023-05-23T06:00:41;96059.13;;;20.23;100.00
11038;BME280;5572;49.540;11.932;2023-05-23T06:03:12;96016.25;;;22.08;100.00
11038;BME280;5572;49.540;11.932;2023-05-23T06:05:38;96058.78;;;20.66;100.00
11038;BME280;5572;49.540;11.932;2023-05-23T06:08:06;96076.13;;;20.70;100.00
11038;BME280;5572;49.540;11.932;2023-05-23T06:10:36;96089.25;;;20.98;100.00
11038;BME280;5572;49.540;11.932;2023-05-23T06:13:04;96100.59;;;20.37;100.00
11038;BME280;5572;49.540;11.932;2023-05-23T06:15:31;96124.88;;;20.16;100.00
11038;BME280;5572;49.540;11.932;2023-05-23T06:17:59;96139.16;;;20.44;100.00
11038;BME280;5572;49.540;11.932;2023-05-23T06:20:27;96146.97;;;20.42;100.00
11038;BME280;5572;49.540;11.932;2023-05-23T06:22:53;96144.44;;;20.71;100.00
11038;BME280;5572;49.540;11.932;2023-05-23T06:25:20;96160.72;;;19.58;100.00
11038;BME280;5572;49.540;11.932;2023-05-23T06:27:47;96167.19;;;19.65;100.00
11038;BME280;5572;49.540;11.932;2023-05-23T06:30:14;96177.88;;;19.08;100.00
11038;BME280;5572;49.540;11.932;2023-05-23T06:32:41;96168.97;;;19.27;100.00
11038;BME280;5572;49.540;11.932;2023-05-23T06:35:08;96144.50;;;19.34;100.00
11038;BME280;5572;49.540;11.932;2023-05-23T06:37:36;96165.94;;;19.01;100.00
11038;BME280;5572;49.540;11.932;2023-05-23T06:40:04;96138.47;;;19.59;100.00
11038;BME280;5572;49.540;11.932;2023-05-23T06:42:31;96163.72;;;19.06;100.00
11038;BME280;5572;49.540;11.932;2023-05-23T06:44:58;96130.84;;;19.06;100.00
11038;BME280;5572;49.540;11.932;2023-05-23T06:47:24;96116.47;;;19.40;100.00
11038;BME280;5572;49.540;11.932;2023-05-23T06:49:51;96117.94;;;19.07;100.00
11038;BME280;5572;49.540;11.932;2023-05-23T06:52:18;96105.66;;;18.86;100.00
11038;BME280;5572;49.540;11.932;2023-05-23T06:54:46;96093.72;;;19.09;100.00
11038;BME280;5572;49.540;11.932;2023-05-23T06:57:12;96116.03;;;18.65;100.00
11038;BME280;5572;49.540;11.932;2023-05-23T06:59:45;96093.84;;;19.62;100.00
11038;BME280;5572;49.540;11.932;2023-05-23T07:02:11;96116.84;;;20.26;100.00
11038;BME280;5572;49.540;11.932;2023-05-23T07:04:38;96114.25;;;19.80;100.00
11038;BME280;5572;49.540;11.932;2023-05-23T07:07:05;96136.88;;;19.58;100.00
11038;BME280;5572;49.540;11.932;2023-05-23T07:09:31;96121.47;;;20.60;100.00
11038;BME280;5572;49.540;11.932;2023-05-23T07:11:59;96182.72;;;19.92;100.00
11038;BME280;5572;49.540;11.932;2023-05-23T07:14:26;96190.03;;;19.69;100.00
11038;BME280;5572;49.540;11.932;2023-05-23T07:16:52;96180.84;;;20.11;100.00
11038;BME280;5572;49.540;11.932;2023-05-23T07:19:18;96225.75;;;20.03;100.00
11038;BME280;5572;49.540;11.932;2023-05-23T07:21:45;96213.44;;;20.32;100.00
11038;BME280;5572;49.540;11.932;2023-05-23T07:24:11;96198.91;;;20.84;100.00
11038;BME280;5572;49.540;11.932;2023-05-23T07:26:38;96197.28;;;21.44;100.00
11038;BME280;5572;49.540;11.932;2023-05-23T07:29:06;96219.13;;;20.95;100.00
11038;BME280;5572;49.540;11.932;2023-05-23T07:31:32;96252.59;;;20.63;100.00
11038;BME280;5572;49.540;11.932;2023-05-23T07:33:59;96266.38;;;20.48;100.00
11038;BME280;5572;49.540;11.932;2023-05-23T07:36:25;96256.50;;;20.28;100.00
11038;BME280;5572;49.540;11.932;2023-05-23T07:38:53;96257.78;;;20.68;100.00
11038;BME280;5572;49.540;11.932;2023-05-23T07:41:20;96261.41;;;20.72;100.00
11038;BME280;5572;49.540;11.932;2023-05-23T07:43:47;96257.94;;;20.06;100.00
11038;BME280;5572;49.540;11.932;2023-05-23T07:46:15;96261.56;;;19.49;100.00
11038;BME280;5572;49.540;11.932;2023-05-23T07:48:41;96247.25;;;19.55;100.00
11038;BME280;5572;49.540;11.932;2023-05-23T07:51:08;96224.41;;;19.82;100.00
11038;BME280;5572;49.540;11.932;2023-05-23T07:53:34;96230.88;;;19.74;100.00
11038;BME280;5572;49.540;11.932;2023-05-23T07:56:04;96223.06;;;20.22;100.00
11038;BME280;5572;49.540;11.932;2023-05-23T07:58:30;96210.81;;;20.73;100.00
11038;BME280;5572;49.540;11.932;2023-05-23T08:00:57;96223.59;;;20.66;100.00
11038;BME280;5572;49.540;11.932;2023-05-23T08:03:25;96252.28;;;20.68;100.00
11038;BME280;5572;49.540;11.932;2023-05-23T08:05:51;96276.16;;;20.30;100.00
11038;BME280;5572;49.540;11.932;2023-05-23T08:08:18;96253.00;;;20.81;100.00
11038;BME280;5572;49.540;11.932;2023-05-23T08:10:44;96239.97;;;21.38;100.00
11038;BME280;5572;49.540;11.932;2023-05-23T08:13:11;96297.84;;;20.69;100.00
11038;BME280;5572;49.540;11.932;2023-05-23T08:15:38;96288.34;;;20.82;100.00
11038;BME280;5572;49.540;11.932;2023-05-23T08:18:04;96298.97;;;21.02;100.00
11038;BME280;5572;49.540;11.932;2023-05-23T08:20:32;96271.47;;;22.30;100.00
11038;BME280;5572;49.540;11.932;2023-05-23T08:22:59;96291.00;;;21.76;100.00
11038;BME280;5572;49.540;11.932;2023-05-23T08:25:27;96317.94;;;21.07;100.00
11038;BME280;5572;49.540;11.932;2023-05-23T08:27:56;96337.44;;;20.68;100.00
11038;BME280;5572;49.540;11.932;2023-05-23T08:30:23;96355.00;;;20.79;100.00
11038;BME280;5572;49.540;11.932;2023-05-23T08:32:50;96365.88;;;20.41;100.00
11038;BME280;5572;49.540;11.932;2023-05-23T08:35:17;96376.59;;;20.00;100.00
11038;BME280;5572;49.540;11.932;2023-05-23T08:37:45;96382.97;;;20.04;100.00
11038;BME280;5572;49.540;11.932;2023-05-23T08:40:13;96370.00;;;20.66;100.00
11038;BME280;5572;49.540;11.932;2023-05-23T08:42:43;96395.94;;;19.91;100.00
11038;BME280;5572;49.540;11.932;2023-05-23T08:45:10;96398.44;;;20.43;100.00
11038;BME280;5572;49.540;11.932;2023-05-23T08:47:37;96425.91;;;19.69;100.00
11038;BME280;5572;49.540;11.932;2023-05-23T08:50:07;96424.13;;;20.04;100.00
11038;BME280;5572;49.540;11.932;2023-05-23T08:52:36;96407.66;;;20.66;100.00
11038;BME280;5572;49.540;11.932;2023-05-23T08:55:19;96404.97;;;21.38;100.00
11038;BME280;5572;49.540;11.932;2023-05-23T08:57:45;96426.78;;;20.93;100.00
11038;BME280;5572;49.540;11.932;2023-05-23T09:00:13;96406.78;;;21.65;100.00
11038;BME280;5572;49.540;11.932;2023-05-23T09:02:42;96411.47;;;21.64;100.00
11038;BME280;5572;49.540;11.932;2023-05-23T09:05:09;96436.03;;;21.19;100.00
11038;BME280;5572;49.540;11.932;2023-05-23T09:07:36;96441.25;;;21.43;100.00
11038;BME280;5572;49.540;11.932;2023-05-23T09:10:04;96491.19;;;20.34;100.00
11038;BME280;5572;49.540;11.932;2023-05-23T09:12:32;96478.69;;;21.13;100.00
11038;BME280;5572;49.540;11.932;2023-05-23T09:15:01;96500.72;;;20.82;100.00
11038;BME280;5572;49.540;11.932;2023-05-23T09:17:27;96561.28;;;19.37;100.00
11038;BME280;5572;49.540;11.932;2023-05-23T09:19:55;96558.03;;;19.59;100.00
11038;BME280;5572;49.540;11.932;2023-05-23T09:22:23;96540.41;;;20.70;100.00
11038;BME280;5572;49.540;11.932;2023-05-23T09:24:51;96583.09;;;19.22;100.00
11038;BME280;5572;49.540;11.932;2023-05-23T09:27:18;96550.84;;;19.94;100.00
11038;BME280;5572;49.540;11.932;2023-05-23T09:29:46;96542.03;;;20.28;100.00
11038;BME280;5572;49.540;11.932;2023-05-23T09:32:13;96537.81;;;20.46;100.00
11038;BME280;5572;49.540;11.932;2023-05-23T09:34:41;96527.41;;;20.97;100.00
11038;BME280;5572;49.540;11.932;2023-05-23T09:37:07;96544.75;;;20.71;100.00
11038;BME280;5572;49.540;11.932;2023-05-23T09:39:37;96534.19;;;20.73;100.00
11038;BME280;5572;49.540;11.932;2023-05-23T09:42:04;96501.41;;;21.26;100.00
11038;BME280;5572;49.540;11.932;2023-05-23T09:44:31;96484.19;;;21.48;100.00
11038;BME280;5572;49.540;11.932;2023-05-23T09:47:07;96440.78;;;21.94;100.00
11038;BME280;5572;49.540;11.932;2023-05-23T09:49:34;96381.22;;;22.28;100.00
11038;BME280;5572;49.540;11.932;2023-05-23T09:52:00;96356.41;;;21.83;100.00
11038;BME280;5572;49.540;11.932;2023-05-23T09:54:27;96333.16;;;22.48;100.00
11038;BME280;5572;49.540;11.932;2023-05-23T09:56:53;96220.63;;;24.41;100.00
11038;BME280;5572;49.540;11.932;2023-05-23T09:59:22;96274.06;;;23.33;100.00
11038;BME280;5572;49.540;11.932;2023-05-23T10:01:50;96386.84;;;20.34;100.00
11038;BME280;5572;49.540;11.932;2023-05-23T10:04:20;96404.59;;;21.01;100.00
11038;BME280;5572;49.540;11.932;2023-05-23T10:06:51;96417.50;;;21.16;100.00
11038;BME280;5572;49.540;11.932;2023-05-23T10:09:20;96375.09;;;22.15;100.00
11038;BME280;5572;49.540;11.932;2023-05-23T10:14:55;96318.50;;;22.95;100.00
11038;BME280;5572;49.540;11.932;2023-05-23T10:17:28;96298.41;;;22.95;100.00
11038;BME280;5572;49.540;11.932;2023-05-23T10:20:03;96293.50;;;22.07;100.00
11038;BME280;5572;49.540;11.932;2023-05-23T10:22:33;96297.53;;;22.36;100.00
11038;BME280;5572;49.540;11.932;2023-05-23T10:25:01;96309.97;;;21.59;100.00
11038;BME280;5572;49.540;11.932;2023-05-23T10:27:28;96334.78;;;21.44;100.00
11038;BME280;5572;49.540;11.932;2023-05-23T10:29:56;96388.03;;;21.17;100.00
11038;BME280;5572;49.540;11.932;2023-05-23T10:32:25;96402.97;;;21.54;100.00
11038;BME280;5572;49.540;11.932;2023-05-23T10:34:56;96396.50;;;21.08;100.00
11038;BME280;5572;49.540;11.932;2023-05-23T10:37:30;96380.53;;;21.52;100.00
11038;BME280;5572;49.540;11.932;2023-05-23T10:40:03;96259.91;;;23.35;100.00
11038;BME280;5572;49.540;11.932;2023-05-23T10:42:39;96171.81;;;23.99;100.00
11038;BME280;5572;49.540;11.932;2023-05-23T10:45:15;96196.66;;;23.99;100.00
11038;BME280;5572;49.540;11.932;2023-05-23T10:47:42;96204.94;;;22.86;100.00
11038;BME280;5572;49.540;11.932;2023-05-23T10:50:11;96197.25;;;23.35;100.00
11038;BME280;5572;49.540;11.932;2023-05-23T10:52:40;96202.06;;;22.76;100.00
11038;BME280;5572;49.540;11.932;2023-05-23T10:58:11;96282.94;;;23.16;100.00
11038;BME280;5572;49.540;11.932;2023-05-23T11:00:38;96165.56;;;24.09;100.00
11038;BME280;5572;49.540;11.932;2023-05-23T11:03:05;96301.16;;;22.40;100.00
11038;BME280;5572;49.540;11.932;2023-05-23T11:05:33;96328.09;;;22.05;100.00
11038;BME280;5572;49.540;11.932;2023-05-23T11:08:08;96338.81;;;22.32;100.00
11038;BME280;5572;49.540;11.932;2023-05-23T11:10:54;96354.41;;;21.61;100.00
11038;BME280;5572;49.540;11.932;2023-05-23T11:13:22;96392.25;;;21.30;100.00
11038;BME280;5572;49.540;11.932;2023-05-23T11:15:49;96271.84;;;23.09;100.00
11038;BME280;5572;49.540;11.932;2023-05-23T11:18:20;96277.41;;;23.49;100.00
11038;BME280;5572;49.540;11.932;2023-05-23T11:20:48;96336.34;;;22.05;100.00
11038;BME280;5572;49.540;11.932;2023-05-23T11:23:19;96353.16;;;21.40;100.00
11038;BME280;5572;49.540;11.932;2023-05-23T11:25:47;96373.44;;;21.32;100.00
11038;BME280;5572;49.540;11.932;2023-05-23T11:28:15;96436.16;;;21.07;100.00
11038;BME280;5572;49.540;11.932;2023-05-23T11:30:42;96433.06;;;20.93;100.00
11038;BME280;5572;49.540;11.932;2023-05-23T11:33:10;96409.34;;;21.39;100.00
11038;BME280;5572;49.540;11.932;2023-05-23T11:35:38;96406.16;;;21.93;100.00
11038;BME280;5572;49.540;11.932;2023-05-23T11:38:05;96398.13;;;21.47;100.00
11038;BME280;5572;49.540;11.932;2023-05-23T11:40:35;96386.16;;;21.77;100.00
11038;BME280;5572;49.540;11.932;2023-05-23T11:43:02;96361.88;;;22.47;100.00
11038;BME280;5572;49.540;11.932;2023-05-23T11:45:30;96407.16;;;21.29;100.00
11038;BME280;5572;49.540;11.932;2023-05-23T11:47:57;96444.31;;;21.04;100.00
11038;BME280;5572;49.540;11.932;2023-05-23T11:50:24;96443.94;;;21.05;100.00
11038;BME280;5572;49.540;11.932;2023-05-23T11:52:53;96473.19;;;21.13;100.00
11038;BME280;5572;49.540;11.932;2023-05-23T11:55:21;96464.00;;;21.06;100.00
11038;BME280;5572;49.540;11.932;2023-05-23T11:57:49;96439.78;;;21.83;100.00
11038;BME280;5572;49.540;11.932;2023-05-23T12:00:17;96457.84;;;21.12;100.00
11038;BME280;5572;49.540;11.932;2023-05-23T12:02:44;96452.47;;;21.69;100.00
11038;BME280;5572;49.540;11.932;2023-05-23T12:05:13;96454.19;;;21.77;100.00
11038;BME280;5572;49.540;11.932;2023-05-23T12:07:40;96461.50;;;21.16;100.00
11038;BME280;5572;49.540;11.932;2023-05-23T12:10:08;96478.59;;;21.44;100.00
11038;BME280;5572;49.540;11.932;2023-05-23T12:12:34;96478.41;;;20.84;100.00
11038;BME280;5572;49.540;11.932;2023-05-23T12:15:03;96442.47;;;22.21;100.00
11038;BME280;5572;49.540;11.932;2023-05-23T12:17:30;96382.25;;;22.20;100.00
11038;BME280;5572;49.540;11.932;2023-05-23T12:19:57;96421.88;;;21.74;100.00
11038;BME280;5572;49.540;11.932;2023-05-23T12:22:24;96435.41;;;21.45;100.00
11038;BME280;5572;49.540;11.932;2023-05-23T12:24:52;96421.72;;;20.95;100.00
11038;BME280;5572;49.540;11.932;2023-05-23T12:27:26;96361.78;;;21.76;100.00
11038;BME280;5572;49.540;11.932;2023-05-23T12:30:05;96322.53;;;22.01;100.00
11038;BME280;5572;49.540;11.932;2023-05-23T12:32:33;96358.59;;;20.98;100.00
11038;BME280;5572;49.540;11.932;2023-05-23T12:35:00;96331.06;;;21.55;100.00
11038;BME280;5572;49.540;11.932;2023-05-23T12:37:27;96444.41;;;21.07;100.00
11038;BME280;5572;49.540;11.932;2023-05-23T12:39:54;96437.81;;;20.78;100.00
11038;BME280;5572;49.540;11.932;2023-05-23T12:42:20;96494.13;;;19.71;100.00
11038;BME280;5572;49.540;11.932;2023-05-23T12:44:50;96487.28;;;20.19;100.00
11038;BME280;5572;49.540;11.932;2023-05-23T12:47:18;96417.66;;;20.74;100.00
11038;BME280;5572;49.540;11.932;2023-05-23T12:49:44;96418.00;;;21.22;100.00
11038;BME280;5572;49.540;11.932;2023-05-23T12:52:12;96422.22;;;21.16;100.00
11038;BME280;5572;49.540;11.932;2023-05-23T12:54:38;96418.66;;;21.53;100.00
11038;BME280;5572;49.540;11.932;2023-05-23T12:57:05;96404.47;;;21.51;100.00
11038;BME280;5572;49.540;11.932;2023-05-23T12:59:31;96463.19;;;21.05;100.00
11038;BME280;5572;49.540;11.932;2023-05-23T13:01:58;96455.97;;;20.82;100.00